Time;durP1;ratioP1;P1;durP2;ratioP2;P2;SDS_P1;SDS_P2;PMS_P1;PMS_P2;Temp;Humidity;BMP_temperature;BMP_pressure;BME280_temperature;BME280_humidity;BME280_pressure;Samples;Min_cycle;Max_cycle;Signal;HPM_P1;HPM_P2
2023/03/01 00:02:36;;;;;;;12.10;5.60;;;-0.30;99.90;;;;;;5009865;28;20054;-82
2023/03/01 00:05:22;;;;;;;11.80;5.32;;;-0.30;99.90;;;;;;5009847;28;20057;-81
2023/03/01 00:08:08;;;;;;;12.25;6.85;;;-0.30;99.90;;;;;;5009301;28;20050;-82
2023/03/01 00:11:12;;;;;;;17.90;7.03;;;-0.40;99.90;;;;;;5017843;28;20089;-82
2023/03/01 00:14:09;;;;;;;14.77;6.82;;;-0.40;99.90;;;;;;5010146;28;20070;-82
2023/03/01 00:16:55;;;;;;;18.48;8.23;;;-0.40;99.90;;;;;;4993050;28;20057;-83
2023/03/01 00:19:41;;;;;;;28.27;10.95;;;-0.40;99.90;;;;;;4991880;28;20099;-82
2023/03/01 00:22:30;;;;;;;26.17;11.35;;;-0.40;99.90;;;;;;5009113;28;20058;-83
2023/03/01 00:25:16;;;;;;;36.50;14.70;;;-0.40;99.90;;;;;;4979894;28;20066;-84
2023/03/01 00:28:03;;;;;;;31.35;15.75;;;-0.40;99.90;;;;;;5011491;28;20061;-83
2023/03/01 00:30:49;;;;;;;25.95;11.98;;;-0.50;99.90;;;;;;5008752;28;20565;-82
2023/03/01 00:33:35;;;;;;;41.10;18.85;;;-0.50;99.90;;;;;;4992226;28;20046;-82
2023/03/01 00:36:21;;;;;;;29.60;14.27;;;-0.50;99.90;;;;;;5009446;28;20395;-81
2023/03/01 00:39:12;;;;;;;27.00;13.60;;;-0.60;99.90;;;;;;4993178;28;20136;-81
2023/03/01 00:41:58;;;;;;;30.20;14.23;;;-0.60;99.90;;;;;;5013382;28;20057;-83
2023/03/01 00:44:44;;;;;;;28.58;14.43;;;-0.60;99.90;;;;;;4991449;28;20541;-83
2023/03/01 00:47:30;;;;;;;22.08;10.75;;;-0.70;99.90;;;;;;4995516;28;20049;-83
2023/03/01 00:50:17;;;;;;;84.78;15.98;;;-0.60;99.90;;;;;;5013056;28;20054;-83
2023/03/01 00:53:04;;;;;;;25.67;13.15;;;-0.70;99.90;;;;;;5013088;28;20144;-81
2023/03/01 00:55:51;;;;;;;30.52;12.95;;;-0.70;99.90;;;;;;5016080;28;20049;-82
2023/03/01 00:58:37;;;;;;;33.25;14.50;;;-0.80;99.90;;;;;;4995091;28;20058;-82
2023/03/01 01:01:30;;;;;;;27.38;13.20;;;-0.80;99.90;;;;;;4995427;28;20829;-82
2023/03/01 01:04:16;;;;;;;27.50;12.85;;;-0.80;99.90;;;;;;5013159;28;20082;-82
2023/03/01 01:07:02;;;;;;;21.95;11.15;;;-0.90;99.90;;;;;;5012693;28;20050;-81
2023/03/01 01:09:48;;;;;;;20.25;9.32;;;-0.90;99.90;;;;;;5013216;28;20125;-82
2023/03/01 01:12:35;;;;;;;15.63;8.43;;;-0.90;99.90;;;;;;5015527;28;20497;-84
2023/03/01 01:15:21;;;;;;;27.42;10.10;;;-0.90;99.90;;;;;;5017272;28;20491;-81
2023/03/01 01:18:07;;;;;;;17.88;9.35;;;-0.90;99.90;;;;;;5013315;28;20072;-84
2023/03/01 01:20:53;;;;;;;15.07;8.77;;;-0.90;99.90;;;;;;5012973;28;20076;-81
2023/03/01 01:23:40;;;;;;;14.88;8.32;;;-0.90;99.90;;;;;;5012392;28;20482;-83
2023/03/01 01:26:29;;;;;;;185.80;20.17;;;-0.90;99.90;;;;;;4998473;28;20533;-82
2023/03/01 01:29:15;;;;;;;48.50;9.80;;;-0.90;99.90;;;;;;5015725;28;20052;-81
2023/03/01 01:32:02;;;;;;;19.02;7.68;;;-0.90;99.90;;;;;;5014334;28;20050;-85
2023/03/01 01:34:48;;;;;;;14.93;8.05;;;-0.90;99.90;;;;;;5012176;28;20093;-84
2023/03/01 01:37:34;;;;;;;19.98;8.48;;;-1.00;99.90;;;;;;5012804;28;20103;-82
2023/03/01 01:40:20;;;;;;;108.47;10.50;;;-1.00;99.90;;;;;;4994717;28;20049;-82
2023/03/01 01:43:23;;;;;;;14.50;7.07;;;-1.00;99.90;;;;;;5015161;28;20042;-84
2023/03/01 01:46:23;;;;;;;46.92;10.55;;;-0.90;99.90;;;;;;5014331;28;20513;-82
2023/03/01 01:49:24;;;;;;;168.40;14.60;;;-0.90;99.90;;;;;;5012262;28;20133;-82
2023/03/01 01:52:26;;;;;;;191.32;15.25;;;-0.80;99.90;;;;;;5011538;28;20517;-82
2023/03/01 01:55:21;;;;;;;60.67;9.15;;;-0.50;99.90;;;;;;5011947;28;20057;-82
2023/03/01 01:58:10;;;;;;;70.03;9.52;;;-0.40;99.90;;;;;;5011304;28;20111;-85
2023/03/01 02:00:56;;;;;;;90.13;13.68;;;-0.20;99.90;;;;;;5014043;28;20054;-82
2023/03/01 02:03:46;;;;;;;19.02;8.57;;;-0.20;99.90;;;;;;5011417;28;20056;-82
2023/03/01 02:06:48;;;;;;;68.90;11.57;;;-0.20;99.90;;;;;;5011595;28;20045;-82
2023/03/01 02:09:35;;;;;;;53.72;10.52;;;-0.20;99.90;;;;;;5010972;28;20100;-82
2023/03/01 02:12:24;;;;;;;105.47;11.98;;;-0.30;99.90;;;;;;5011733;28;20168;-82
2023/03/01 02:15:10;;;;;;;55.17;9.88;;;-0.30;99.90;;;;;;4997404;28;20053;-82
2023/03/01 02:17:57;;;;;;;17.92;8.27;;;-0.40;99.90;;;;;;5011360;28;20137;-81
2023/03/01 02:21:11;;;;;;;61.42;10.95;;;-0.40;99.90;;;;;;5011779;28;20088;-82
2023/03/01 02:24:05;;;;;;;29.45;9.45;;;-0.50;99.90;;;;;;5011449;28;20119;-81
2023/03/01 02:26:54;;;;;;;26.10;10.63;;;-0.50;99.90;;;;;;4996454;28;20053;-82
2023/03/01 02:29:43;;;;;;;22.75;10.18;;;-0.60;99.90;;;;;;5010781;28;20042;-84
2023/03/01 02:32:29;;;;;;;27.58;10.30;;;-0.60;99.90;;;;;;5014094;28;20058;-82
2023/03/01 02:35:17;;;;;;;41.53;12.27;;;-0.60;99.90;;;;;;5010418;28;20135;-81
2023/03/01 02:38:07;;;;;;;31.08;10.35;;;-0.60;99.90;;;;;;5010530;28;20081;-83
2023/03/01 02:40:56;;;;;;;42.20;9.27;;;-0.60;99.90;;;;;;5011745;28;20054;-83
2023/03/01 02:43:43;;;;;;;399.98;37.70;;;-0.70;99.90;;;;;;5013424;28;20053;-82
2023/03/01 02:46:29;;;;;;;70.22;14.52;;;-0.70;99.90;;;;;;5015066;28;20133;-80
2023/03/01 02:49:22;;;;;;;30.25;11.27;;;-0.70;99.90;;;;;;5017318;28;20050;-82
2023/03/01 02:52:36;;;;;;;205.07;20.85;;;-0.80;99.90;;;;;;4994479;28;20050;-82
2023/03/01 02:55:22;;;;;;;88.10;11.60;;;-0.80;99.90;;;;;;4979958;28;20042;-83
2023/03/01 02:58:09;;;;;;;95.28;12.13;;;-0.70;99.90;;;;;;4992628;28;20426;-81
2023/03/01 03:00:56;;;;;;;120.95;13.13;;;-0.70;99.90;;;;;;4992951;28;20517;-81
2023/03/01 03:03:42;;;;;;;196.07;17.45;;;-0.70;99.90;;;;;;5011983;28;20056;-82
2023/03/01 03:06:29;;;;;;;88.10;11.85;;;-0.70;99.90;;;;;;4996399;28;20057;-81
2023/03/01 03:09:15;;;;;;;29.77;8.93;;;-0.70;99.90;;;;;;5010526;28;20045;-82
2023/03/01 03:12:02;;;;;;;93.75;12.30;;;-0.70;99.90;;;;;;5010959;28;20042;-82
2023/03/01 03:14:48;;;;;;;229.15;18.80;;;-0.70;99.90;;;;;;5010297;28;20122;-82
2023/03/01 03:17:39;;;;;;;126.63;14.88;;;-0.60;99.90;;;;;;5010708;28;20056;-82
2023/03/01 03:20:28;;;;;;;190.55;21.95;;;-0.60;99.90;;;;;;5009922;28;20057;-81
2023/03/01 03:23:14;;;;;;;50.60;12.77;;;-0.60;99.90;;;;;;5002039;28;20049;-81
2023/03/01 03:26:00;;;;;;;34.75;11.30;;;-0.60;99.90;;;;;;5014248;28;20095;-82
2023/03/01 03:28:46;;;;;;;84.50;13.50;;;-0.70;99.90;;;;;;5009834;28;20058;-82
2023/03/01 03:31:33;;;;;;;178.77;18.30;;;-0.70;99.90;;;;;;5009165;28;20050;-82
2023/03/01 03:34:19;;;;;;;118.13;15.07;;;-0.70;99.90;;;;;;4993292;28;20060;-82
2023/03/01 03:38:01;;;;;;;54.08;11.27;;;-0.70;99.90;;;;;;5010834;28;20336;-82
2023/03/01 03:40:15;;;;;;;;;;;-0.80;99.90;;;;;;5013570;28;20057;-83
2023/03/01 03:43:02;;;;;;;21.25;8.88;;;-0.80;99.90;;;;;;5010440;28;19925;-83
2023/03/01 03:45:50;;;;;;;24.48;9.63;;;-0.80;99.90;;;;;;5010873;28;20053;-82
2023/03/01 03:48:43;;;;;;;24.30;10.07;;;-0.80;99.90;;;;;;4995298;28;20138;-83
2023/03/01 03:51:29;;;;;;;24.00;10.20;;;-0.90;99.90;;;;;;5009151;28;20510;-82
2023/03/01 03:54:16;;;;;;;30.30;9.95;;;-0.90;99.90;;;;;;5016133;28;20042;-83
2023/03/01 03:57:03;;;;;;;18.98;10.50;;;-0.90;99.90;;;;;;5010416;28;20063;-81
2023/03/01 03:59:49;;;;;;;16.00;9.07;;;-0.80;99.90;;;;;;5010198;28;20042;-83
2023/03/01 04:02:35;;;;;;;15.35;8.65;;;-0.80;99.90;;;;;;5010993;28;20054;-83
2023/03/01 04:05:21;;;;;;;19.48;9.20;;;-0.70;99.90;;;;;;5010097;28;20089;-82
2023/03/01 04:08:08;;;;;;;20.70;10.02;;;-0.70;99.90;;;;;;5010426;28;20139;-83
2023/03/01 04:11:25;;;;;;;18.77;9.30;;;-0.60;99.90;;;;;;5001406;28;20050;-84
2023/03/01 04:14:06;;;;;;;22.13;10.38;;;-0.50;99.90;;;;;;5011091;28;20054;-82
2023/03/01 04:16:52;;;;;;;18.05;9.68;;;-0.50;99.90;;;;;;5015905;28;20459;-82
2023/03/01 04:19:38;;;;;;;19.65;9.38;;;-0.40;99.90;;;;;;4996353;28;20057;-84
2023/03/01 04:22:29;;;;;;;18.40;9.73;;;-0.40;99.90;;;;;;5014088;28;20050;-83
2023/03/01 04:25:15;;;;;;;17.73;9.20;;;-0.40;99.90;;;;;;5018837;28;20485;-83
2023/03/01 04:28:01;;;;;;;16.38;8.85;;;-0.40;99.90;;;;;;5015957;28;20089;-82
2023/03/01 04:30:47;;;;;;;17.58;9.52;;;-0.40;99.90;;;;;;5019126;28;20054;-83
2023/03/01 04:33:34;;;;;;;13.70;8.20;;;-0.40;99.90;;;;;;5003247;28;20113;-82
2023/03/01 04:36:23;;;;;;;21.88;9.30;;;-0.50;99.90;;;;;;5016438;28;20053;-83
2023/03/01 04:39:11;;;;;;;16.30;8.43;;;-0.50;99.90;;;;;;5016637;28;20050;-81
2023/03/01 04:41:58;;;;;;;14.95;8.65;;;-0.50;99.90;;;;;;5000527;28;20069;-82
2023/03/01 04:44:45;;;;;;;19.88;7.47;;;-0.50;99.90;;;;;;5014127;28;20461;-83
2023/03/01 04:47:31;;;;;;;16.27;8.43;;;-0.60;99.90;;;;;;4995580;28;20496;-82
2023/03/01 04:50:23;;;;;;;13.93;8.02;;;-0.60;99.90;;;;;;5014860;28;20480;-84
2023/03/01 04:53:09;;;;;;;24.98;9.02;;;-0.60;99.90;;;;;;4996409;28;20046;-83
2023/03/01 04:55:56;;;;;;;14.48;7.65;;;-0.50;99.90;;;;;;5012823;28;20061;-83
2023/03/01 04:58:43;;;;;;;15.82;8.18;;;-0.50;99.90;;;;;;5012685;28;20050;-83
2023/03/01 05:01:29;;;;;;;50.25;9.30;;;-0.50;99.90;;;;;;5013480;28;20053;-82
2023/03/01 05:04:15;;;;;;;32.40;9.05;;;-0.50;99.90;;;;;;5012855;28;20044;-84
2023/03/01 05:07:01;;;;;;;27.15;9.52;;;-0.50;99.90;;;;;;5012944;28;20046;-84
2023/03/01 05:09:47;;;;;;;14.85;8.10;;;-0.60;99.90;;;;;;4996335;28;20061;-83
2023/03/01 05:12:33;;;;;;;22.15;9.32;;;-0.50;99.90;;;;;;5018179;28;20058;-84
2023/03/01 05:15:21;;;;;;;18.92;9.65;;;-0.50;99.90;;;;;;5012082;28;20141;-84
2023/03/01 05:18:11;;;;;;;17.40;8.77;;;-0.60;99.90;;;;;;5014968;28;20546;-83
2023/03/01 05:21:05;;;;;;;14.32;7.80;;;-0.60;99.90;;;;;;5016946;28;20049;-84
2023/03/01 05:23:52;;;;;;;15.93;8.10;;;-0.60;99.90;;;;;;5016434;28;20143;-84
2023/03/01 05:26:40;;;;;;;17.55;8.95;;;-0.70;99.90;;;;;;5015467;28;20060;-84
2023/03/01 05:29:28;;;;;;;14.10;8.20;;;-0.70;99.90;;;;;;5012161;28;20081;-83
2023/03/01 05:32:15;;;;;;;15.07;8.02;;;-0.80;99.90;;;;;;4994740;28;20136;-84
2023/03/01 05:35:01;;;;;;;13.50;6.65;;;-0.80;99.90;;;;;;4998625;28;20164;-83
2023/03/01 05:37:49;;;;;;;17.00;8.77;;;-0.90;99.90;;;;;;5022276;28;20053;-84
2023/03/01 05:40:35;;;;;;;16.25;10.27;;;-0.90;99.90;;;;;;5012935;28;20096;-85
2023/03/01 05:43:21;;;;;;;14.77;8.07;;;-0.90;99.90;;;;;;5012103;28;20545;-84
2023/03/01 05:46:12;;;;;;;18.13;8.00;;;-0.90;99.90;;;;;;4997260;28;20057;-84
2023/03/01 05:48:59;;;;;;;14.77;7.68;;;-1.00;99.90;;;;;;4998410;28;20069;-85
2023/03/01 05:51:50;;;;;;;17.15;9.10;;;-1.00;99.90;;;;;;5013625;28;20053;-85
2023/03/01 05:54:36;;;;;;;23.52;12.23;;;-1.10;99.90;;;;;;5017125;28;20724;-84
2023/03/01 05:57:23;;;;;;;20.88;11.15;;;-1.10;99.90;;;;;;5011465;28;20050;-83
2023/03/01 06:00:11;;;;;;;30.15;13.05;;;-1.00;99.90;;;;;;4994279;28;20054;-85
2023/03/01 06:02:58;;;;;;;22.60;10.43;;;-1.10;99.90;;;;;;5013029;28;20085;-83
2023/03/01 06:05:45;;;;;;;21.85;10.73;;;-1.10;99.90;;;;;;5012881;28;20135;-84
2023/03/01 06:08:31;;;;;;;19.95;9.30;;;-1.20;99.90;;;;;;4997416;28;20061;-84
2023/03/01 06:11:17;;;;;;;23.30;10.68;;;-1.20;99.90;;;;;;5008439;28;20070;-83
2023/03/01 06:14:04;;;;;;;21.52;11.45;;;-1.20;99.90;;;;;;5021981;28;20050;-84
2023/03/01 06:16:50;;;;;;;18.52;9.52;;;-1.30;99.90;;;;;;5012575;28;20042;-84
2023/03/01 06:19:36;;;;;;;19.88;10.45;;;-1.30;99.90;;;;;;5011844;28;20080;-84
2023/03/01 06:22:22;;;;;;;22.27;12.07;;;-1.30;99.90;;;;;;5012055;28;20050;-83
2023/03/01 06:25:09;;;;;;;18.80;9.68;;;-1.40;99.90;;;;;;4980660;28;20058;-83
2023/03/01 06:27:56;;;;;;;26.52;11.55;;;-1.40;99.90;;;;;;4994309;28;20054;-85
2023/03/01 06:30:42;;;;;;;18.98;9.38;;;-1.40;99.90;;;;;;5012339;28;20046;-83
2023/03/01 06:33:28;;;;;;;21.05;9.82;;;-1.40;99.90;;;;;;4997593;28;20462;-83
2023/03/01 06:36:18;;;;;;;22.67;11.63;;;-1.40;99.90;;;;;;5017695;28;20056;-84
2023/03/01 06:39:05;;;;;;;20.25;10.55;;;-1.40;99.90;;;;;;5011688;28;20192;-83
2023/03/01 06:41:51;;;;;;;40.15;11.30;;;-1.40;99.90;;;;;;5010782;28;20052;-83
2023/03/01 06:44:37;;;;;;;21.48;10.73;;;-1.40;99.90;;;;;;4993236;28;20061;-82
2023/03/01 06:47:23;;;;;;;38.40;12.57;;;-1.40;99.90;;;;;;5012018;28;20120;-82
2023/03/01 06:50:11;;;;;;;35.00;10.85;;;-1.40;99.90;;;;;;4995591;28;20135;-83
2023/03/01 06:52:57;;;;;;;29.55;11.20;;;-1.30;99.90;;;;;;5015102;28;20093;-83
2023/03/01 06:55:43;;;;;;;32.45;12.23;;;-1.30;99.90;;;;;;5011941;28;20118;-83
2023/03/01 06:58:30;;;;;;;29.77;10.35;;;-1.20;99.90;;;;;;5012721;28;20069;-84
2023/03/01 07:01:16;;;;;;;122.22;15.52;;;-1.20;99.90;;;;;;5011449;28;20058;-84
2023/03/01 07:04:02;;;;;;;87.30;14.27;;;-1.10;99.90;;;;;;5011872;28;20133;-84
2023/03/01 07:06:54;;;;;;;51.20;12.95;;;-1.10;99.90;;;;;;5018661;28;20049;-84
2023/03/01 07:09:41;;;;;;;28.80;11.75;;;-1.10;99.90;;;;;;5011994;28;20521;-84
2023/03/01 07:12:27;;;;;;;22.80;11.23;;;-1.00;99.90;;;;;;4998702;28;20180;-83
2023/03/01 07:15:14;;;;;;;26.65;12.15;;;-0.90;99.90;;;;;;5011850;28;20418;-83
2023/03/01 07:18:01;;;;;;;20.77;11.95;;;-0.90;99.90;;;;;;5012599;28;20565;-83
2023/03/01 07:20:47;;;;;;;19.42;10.60;;;-0.80;99.90;;;;;;5012995;28;20046;-83
2023/03/01 07:23:34;;;;;;;20.63;11.38;;;-0.70;99.90;;;;;;5013682;28;20049;-83
2023/03/01 07:26:21;;;;;;;25.27;13.20;;;-0.60;99.90;;;;;;5012280;28;20045;-83
2023/03/01 07:29:10;;;;;;;29.27;12.38;;;-0.60;99.90;;;;;;5012635;28;20046;-82
2023/03/01 07:31:56;;;;;;;25.73;12.52;;;-0.50;99.90;;;;;;5019806;28;20053;-85
2023/03/01 07:34:42;;;;;;;19.90;10.20;;;-0.50;99.90;;;;;;5016853;28;20410;-83
2023/03/01 07:37:30;;;;;;;23.30;12.52;;;-0.40;99.90;;;;;;5011983;28;20100;-83
2023/03/01 07:40:17;;;;;;;22.40;11.65;;;-0.40;99.90;;;;;;5011325;28;20050;-83
2023/03/01 07:43:03;;;;;;;28.55;13.18;;;-0.30;99.90;;;;;;5010795;28;20065;-83
2023/03/01 07:45:49;;;;;;;23.27;12.18;;;-0.20;99.90;;;;;;5011756;28;20049;-83
2023/03/01 07:48:35;;;;;;;29.80;14.95;;;-0.10;99.90;;;;;;5026724;28;20072;-83
2023/03/01 07:51:21;;;;;;;27.02;13.07;;;0.00;99.90;;;;;;5022619;28;20064;-82
2023/03/01 07:54:07;;;;;;;27.58;14.88;;;0.20;99.90;;;;;;5026558;28;20061;-84
2023/03/01 07:56:54;;;;;;;28.88;15.48;;;0.30;99.90;;;;;;5026422;28;20500;-83
2023/03/01 07:59:40;;;;;;;31.23;15.93;;;0.50;99.90;;;;;;5013623;28;20056;-82
2023/03/01 08:02:27;;;;;;;33.40;16.98;;;0.70;99.90;;;;;;5004450;28;20053;-83
2023/03/01 08:05:13;;;;;;;29.33;14.50;;;0.80;99.90;;;;;;5011326;28;20113;-83
2023/03/01 08:07:59;;;;;;;29.98;16.02;;;0.90;99.90;;;;;;4995308;28;20093;-83
2023/03/01 08:10:45;;;;;;;30.85;14.15;;;1.10;99.90;;;;;;5000932;28;20529;-83
2023/03/01 08:13:32;;;;;;;28.67;14.88;;;1.20;99.90;;;;;;5010853;28;20540;-85
2023/03/01 08:16:18;;;;;;;31.13;15.77;;;1.40;99.90;;;;;;4995033;28;20061;-84
2023/03/01 08:19:06;;;;;;;25.73;14.93;;;1.50;99.90;;;;;;5014659;28;20494;-85
2023/03/01 08:21:52;;;;;;;34.10;17.40;;;1.70;99.90;;;;;;5015995;28;20069;-85
2023/03/01 08:24:38;;;;;;;27.02;15.05;;;1.80;99.90;;;;;;5013148;28;20064;-86
2023/03/01 08:27:24;;;;;;;29.30;16.05;;;1.90;99.90;;;;;;4994047;28;20050;-86
2023/03/01 08:30:11;;;;;;;26.75;15.68;;;2.00;99.90;;;;;;5015022;28;20042;-86
2023/03/01 08:32:57;;;;;;;28.85;15.75;;;2.10;99.90;;;;;;5010439;28;20774;-86
2023/03/01 08:35:43;;;;;;;27.13;15.52;;;2.20;99.90;;;;;;5009452;28;20080;-85
2023/03/01 08:38:29;;;;;;;26.17;15.00;;;2.30;99.90;;;;;;5011802;28;20058;-84
2023/03/01 08:41:16;;;;;;;24.98;14.23;;;2.40;99.90;;;;;;4998360;28;20087;-84
2023/03/01 08:44:02;;;;;;;25.33;13.85;;;2.60;99.90;;;;;;5013625;28;20046;-86
2023/03/01 08:46:49;;;;;;;24.40;12.70;;;2.70;99.90;;;;;;5014341;28;20498;-84
2023/03/01 08:49:35;;;;;;;20.85;12.02;;;2.70;99.90;;;;;;4994954;28;20081;-84
2023/03/01 08:52:22;;;;;;;24.90;13.77;;;2.70;99.90;;;;;;5009924;28;20621;-85
2023/03/01 08:55:08;;;;;;;23.70;12.85;;;2.80;99.90;;;;;;4992460;28;20068;-85
2023/03/01 08:57:57;;;;;;;26.80;13.85;;;2.90;99.90;;;;;;5010031;28;20560;-85
2023/03/01 09:00:44;;;;;;;23.25;14.00;;;3.00;99.90;;;;;;5009279;28;20123;-84
2023/03/01 09:03:30;;;;;;;21.08;12.30;;;3.10;99.90;;;;;;4995811;28;20122;-84
2023/03/01 09:06:16;;;;;;;20.52;11.48;;;3.30;99.90;;;;;;5011284;28;20041;-84
2023/03/01 09:09:04;;;;;;;27.13;16.08;;;3.40;99.90;;;;;;5013209;28;20778;-85
2023/03/01 09:11:50;;;;;;;22.98;14.13;;;3.50;99.90;;;;;;4998765;28;20046;-85
2023/03/01 09:14:38;;;;;;;25.05;13.65;;;3.60;99.90;;;;;;5012768;28;20116;-85
2023/03/01 09:17:24;;;;;;;27.17;13.48;;;3.70;99.90;;;;;;5015042;28;20041;-84
2023/03/01 09:20:11;;;;;;;22.05;13.07;;;3.90;99.90;;;;;;4999074;28;20050;-84
2023/03/01 09:22:57;;;;;;;30.05;14.75;;;3.90;99.90;;;;;;4998411;28;20050;-85
2023/03/01 09:25:43;;;;;;;30.10;15.63;;;4.00;99.90;;;;;;4998080;28;20050;-85
2023/03/01 09:28:29;;;;;;;26.88;15.27;;;4.20;99.90;;;;;;4981206;28;20148;-85
2023/03/01 09:31:17;;;;;;;26.40;14.13;;;4.30;99.90;;;;;;5012346;28;20413;-84
2023/03/01 09:34:04;;;;;;;21.05;12.45;;;4.40;99.90;;;;;;5013525;28;20046;-84
2023/03/01 09:36:51;;;;;;;20.85;12.38;;;4.50;99.90;;;;;;5013268;28;20046;-82
2023/03/01 09:39:37;;;;;;;22.92;12.48;;;4.70;99.90;;;;;;5018206;28;20081;-82
2023/03/01 09:42:23;;;;;;;19.65;12.00;;;4.80;99.90;;;;;;5012520;28;20514;-83
2023/03/01 09:45:25;;;;;;;20.20;12.32;;;5.00;99.90;;;;;;4994495;28;20565;-83
2023/03/01 09:48:21;;;;;;;21.52;12.27;;;5.10;99.90;;;;;;5012375;28;20056;-84
2023/03/01 09:51:14;;;;;;;21.48;12.82;;;5.20;99.90;;;;;;5011879;28;20100;-83
2023/03/01 09:54:05;;;;;;;21.52;12.73;;;5.20;99.90;;;;;;4997832;28;20442;-83
2023/03/01 09:57:08;;;;;;;18.77;11.93;;;5.40;99.90;;;;;;5013171;28;20050;-84
2023/03/01 10:00:18;;;;;;;24.13;13.27;;;5.50;99.90;;;;;;5013369;28;20042;-83
2023/03/01 10:03:16;;;;;;;19.17;11.77;;;5.60;99.90;;;;;;5013209;28;20045;-84
2023/03/01 10:06:25;;;;;;;21.60;12.07;;;5.80;99.90;;;;;;5013783;28;20042;-83
2023/03/01 10:09:15;;;;;;;20.45;11.45;;;6.00;99.90;;;;;;5013058;28;20061;-84
2023/03/01 10:12:04;;;;;;;20.20;10.77;;;6.30;99.90;;;;;;5018589;28;20127;-85
2023/03/01 10:15:14;;;;;;;31.65;12.10;;;6.40;99.90;;;;;;5018563;28;20081;-85
2023/03/01 10:18:37;;;;;;;18.42;11.32;;;6.70;99.90;;;;;;4992648;28;20042;-84
2023/03/01 10:21:26;;;;;;;19.80;12.00;;;6.60;99.90;;;;;;4931799;29;20114;-85
2023/03/01 10:24:16;;;;;;;18.50;11.48;;;7.00;99.90;;;;;;5011827;28;20140;-85
2023/03/01 10:27:17;;;;;;;21.80;11.55;;;7.40;99.90;;;;;;5012075;28;20058;-85
2023/03/01 10:30:33;;;;;;;21.13;11.45;;;8.10;99.90;;;;;;4967869;28;20420;-84
2023/03/01 10:33:29;;;;;;;18.25;10.77;;;8.30;99.90;;;;;;4987609;28;20042;-84
2023/03/01 10:36:15;;;;;;;23.83;12.77;;;8.70;99.90;;;;;;5018884;28;20061;-85
2023/03/01 10:39:26;;;;;;;19.67;10.98;;;8.80;99.90;;;;;;5011252;28;20498;-85
2023/03/01 10:42:27;;;;;;;18.23;11.23;;;8.80;99.90;;;;;;5001611;28;20454;-83
2023/03/01 10:45:37;;;;;;;15.63;9.57;;;9.50;99.90;;;;;;5011378;28;20117;-83
2023/03/01 10:48:41;;;;;;;14.23;8.98;;;9.80;99.90;;;;;;5011083;28;20473;-82
2023/03/01 10:51:27;;;;;;;16.15;8.95;;;10.10;99.90;;;;;;5010277;28;20431;-84
2023/03/01 10:54:31;;;;;;;15.32;9.57;;;10.40;99.90;;;;;;4997516;28;20184;-84
2023/03/01 10:57:36;;;;;;;15.10;9.23;;;10.70;99.90;;;;;;4998744;28;20057;-83
2023/03/01 11:00:25;;;;;;;13.32;8.75;;;10.90;99.90;;;;;;5010756;28;20050;-84
2023/03/01 11:03:14;;;;;;;11.07;7.30;;;10.80;99.90;;;;;;5010479;28;20491;-84
2023/03/01 11:06:12;;;;;;;15.82;8.88;;;10.90;99.90;;;;;;4980647;28;20108;-84
2023/03/01 11:09:13;;;;;;;13.00;7.50;;;11.00;99.90;;;;;;5010827;28;20422;-83
2023/03/01 11:12:00;;;;;;;13.82;8.68;;;11.30;99.90;;;;;;5010968;28;20560;-84
2023/03/01 11:14:50;;;;;;;14.00;8.85;;;11.60;99.90;;;;;;5010592;28;20050;-84
2023/03/01 11:17:38;;;;;;;15.48;9.98;;;11.60;99.90;;;;;;5011936;28;20050;-84
2023/03/01 11:20:26;;;;;;;15.95;8.55;;;11.90;99.90;;;;;;5010478;28;20054;-85
2023/03/01 11:23:14;;;;;;;15.57;9.15;;;12.20;99.90;;;;;;5011985;28;20127;-84
2023/03/01 11:26:05;;;;;;;16.13;9.25;;;12.20;99.80;;;;;;5009779;28;20057;-83
2023/03/01 11:28:57;;;;;;;15.52;8.95;;;12.30;99.80;;;;;;4997080;28;20061;-84
2023/03/01 11:31:45;;;;;;;13.25;8.60;;;13.10;98.90;;;;;;4993771;28;20805;-84
2023/03/01 11:34:58;;;;;;;19.38;9.40;;;13.50;98.80;;;;;;4992324;28;20088;-85
2023/03/01 11:38:17;;;;;;;13.13;8.27;;;14.50;96.70;;;;;;5011769;28;20053;-82
2023/03/01 11:41:23;;;;;;;15.35;9.07;;;15.00;95.30;;;;;;5011570;28;20053;-84
2023/03/01 11:44:31;;;;;;;12.48;8.60;;;15.80;93.90;;;;;;5009956;28;20054;-84
2023/03/01 11:47:26;;;;;;;16.42;8.50;;;16.20;92.70;;;;;;4979611;28;20053;-84
2023/03/01 11:50:40;;;;;;;13.38;8.30;;;16.50;92.80;;;;;;5010032;28;20056;-83
2023/03/01 11:53:58;;;;;;;15.05;8.45;;;17.40;90.50;;;;;;4978462;28;20136;-83
2023/03/01 11:57:00;;;;;;;14.95;7.85;;;17.80;88.00;;;;;;4998637;28;20509;-83
2023/03/01 11:59:49;;;;;;;16.10;7.97;;;18.50;84.20;;;;;;5013883;28;20057;-83
2023/03/01 12:03:00;;;;;;;12.38;7.55;;;18.80;83.40;;;;;;4995914;28;20085;-83
2023/03/01 12:06:03;;;;;;;15.15;8.35;;;19.00;78.00;;;;;;5010416;28;20042;-85
2023/03/01 12:09:04;;;;;;;15.18;7.82;;;18.70;75.90;;;;;;4995788;28;20050;-84
2023/03/01 12:12:26;;;;;;;11.95;8.07;;;17.60;75.40;;;;;;4982326;28;20134;-84
2023/03/01 12:15:30;;;;;;;11.07;6.90;;;17.20;75.50;;;;;;4997151;28;20449;-86
2023/03/01 12:18:34;;;;;;;12.48;7.97;;;17.40;78.40;;;;;;5009402;28;20045;-84
2023/03/01 12:21:58;;;;;;;10.05;7.15;;;18.50;76.50;;;;;;5009201;28;20498;-83
2023/03/01 12:24:54;;;;;;;9.95;6.65;;;19.40;72.70;;;;;;4979053;28;20454;-83
2023/03/01 12:28:02;;;;;;;13.38;7.63;;;20.20;68.20;;;;;;4991751;28;20049;-83
2023/03/01 12:30:58;;;;;;;11.10;6.90;;;21.10;64.50;;;;;;4981079;28;20073;-83
2023/03/01 12:34:09;;;;;;;12.57;8.40;;;21.50;62.60;;;;;;4998462;28;20073;-82
2023/03/01 12:37:29;;;;;;;13.48;6.88;;;22.00;58.60;;;;;;4979512;28;20062;-82
2023/03/01 12:40:53;;;;;;;11.57;7.75;;;22.70;53.40;;;;;;5009185;28;20050;-82
2023/03/01 12:43:42;;;;;;;13.43;8.30;;;22.90;51.90;;;;;;4981895;28;20113;-81
2023/03/01 12:46:37;;;;;;;11.38;7.30;;;22.40;52.10;;;;;;4996694;28;20058;-82
2023/03/01 12:49:45;;;;;;;15.63;7.80;;;23.00;52.70;;;;;;4995139;28;20054;-83
2023/03/01 12:52:31;;;;;;;11.30;7.85;;;23.40;49.10;;;;;;5012676;28;20056;-85
2023/03/01 12:55:34;;;;;;;13.63;9.23;;;23.50;50.90;;;;;;4996130;28;20057;-84
2023/03/01 12:58:35;;;;;;;11.43;7.03;;;23.60;48.40;;;;;;5014448;28;20159;-84
2023/03/01 13:01:47;;;;;;;15.00;8.48;;;23.30;49.20;;;;;;4995664;28;20064;-83
2023/03/01 13:04:52;;;;;;;11.63;7.65;;;22.20;48.70;;;;;;5014233;28;20146;-86
2023/03/01 13:08:05;;;;;;;12.53;7.53;;;22.10;48.40;;;;;;5013914;28;20065;-83
2023/03/01 13:11:05;;;;;;;12.20;6.88;;;22.30;50.70;;;;;;5016637;28;20136;-85
2023/03/01 13:14:12;;;;;;;9.63;6.78;;;21.30;50.00;;;;;;4990759;28;20049;-84
2023/03/01 13:16:58;;;;;;;11.73;5.97;;;20.30;52.20;;;;;;5019389;28;20081;-86
2023/03/01 13:19:57;;;;;;;11.32;6.60;;;20.30;53.30;;;;;;5013451;28;20054;-84
2023/03/01 13:22:46;;;;;;;9.57;5.88;;;20.80;51.50;;;;;;5013258;28;20490;-84
2023/03/01 13:25:32;;;;;;;10.40;6.50;;;21.80;51.10;;;;;;5014239;28;20056;-85
2023/03/01 13:28:37;;;;;;;9.63;6.22;;;22.00;49.80;;;;;;4998565;28;20057;-84
2023/03/01 13:31:26;;;;;;;10.50;6.85;;;22.50;47.70;;;;;;4994828;28;20163;-85
2023/03/01 13:34:43;;;;;;;10.18;6.20;;;23.00;48.00;;;;;;5016354;28;20128;-84
2023/03/01 13:37:31;;;;;;;11.43;6.65;;;22.80;46.70;;;;;;5017123;28;20132;-83
2023/03/01 13:40:20;;;;;;;11.00;6.25;;;23.10;46.60;;;;;;4996808;28;20050;-82
2023/03/01 13:43:33;;;;;;;12.35;6.70;;;23.30;46.60;;;;;;5012805;28;20054;-84
2023/03/01 13:46:24;;;;;;;9.50;6.22;;;23.40;43.00;;;;;;4995214;28;20521;-82
2023/03/01 13:49:16;;;;;;;9.55;5.93;;;23.70;44.60;;;;;;4995708;28;20520;-83
2023/03/01 13:52:02;;;;;;;12.20;6.10;;;23.30;43.90;;;;;;5012721;28;20077;-83
2023/03/01 13:54:49;;;;;;;10.88;7.35;;;23.10;44.80;;;;;;5012540;28;20053;-84
2023/03/01 13:57:38;;;;;;;9.25;6.15;;;22.80;43.70;;;;;;5013069;28;20050;-84
2023/03/01 14:00:37;;;;;;;10.85;6.60;;;22.90;44.90;;;;;;5013478;28;20050;-82
2023/03/01 14:03:24;;;;;;;11.40;6.72;;;23.00;43.90;;;;;;5014870;28;20054;-83
2023/03/01 14:06:17;;;;;;;10.23;6.80;;;22.80;44.60;;;;;;5012528;28;20132;-86
2023/03/01 14:09:09;;;;;;;8.95;6.18;;;22.20;45.00;;;;;;5012204;28;20583;-84
2023/03/01 14:12:04;;;;;;;9.68;5.70;;;21.80;45.30;;;;;;5011230;28;20680;-83
2023/03/01 14:15:14;;;;;;;10.30;6.90;;;22.40;45.60;;;;;;5012081;28;20053;-82
2023/03/01 14:18:23;;;;;;;10.27;6.43;;;23.10;42.10;;;;;;4996669;28;20057;-82
2023/03/01 14:21:14;;;;;;;10.90;6.32;;;23.90;43.40;;;;;;4993694;28;20054;-83
2023/03/01 14:24:00;;;;;;;11.00;6.85;;;23.80;41.80;;;;;;4994518;28;20061;-84
2023/03/01 14:26:47;;;;;;;10.38;6.78;;;24.50;40.90;;;;;;4994515;28;20588;-82
2023/03/01 14:29:36;;;;;;;12.15;7.30;;;24.50;40.00;;;;;;4997358;28;20050;-84
2023/03/01 14:32:26;;;;;;;10.30;6.70;;;24.30;39.20;;;;;;4998550;28;20050;-82
2023/03/01 14:35:21;;;;;;;11.15;8.00;;;24.40;39.90;;;;;;5014255;28;20046;-86
2023/03/01 14:38:20;;;;;;;;;;;24.80;39.30;;;;;;5016798;28;20046;-86